sensor_id;sensor_type;location;lat;lon;timestamp;pressure;altitude;pressure_sealevel;temperature;humidity
21449;BME280;10885;52.830;13.788;2022-11-25T06:02:43;101243.84;;;1.99;82.18
21449;BME280;10885;52.830;13.788;2022-11-25T06:08:08;101237.41;;;1.94;81.96
21449;BME280;10885;52.830;13.788;2022-11-25T06:13:30;101247.25;;;1.91;82.16
21449;BME280;10885;52.830;13.788;2022-11-25T06:18:51;101250.50;;;1.90;82.50
21449;BME280;10885;52.830;13.788;2022-11-25T06:24:14;101249.78;;;1.91;82.19
21449;BME280;10885;52.830;13.788;2022-11-25T06:29:37;101262.88;;;1.96;82.50
21449;BME280;10885;52.830;13.788;2022-11-25T06:34:58;101248.59;;;1.96;82.48
21449;BME280;10885;52.830;13.788;2022-11-25T06:40:42;101251.13;;;1.96;82.59
21449;BME280;10885;52.830;13.788;2022-11-25T06:46:04;101255.44;;;1.97;82.70
21449;BME280;10885;52.830;13.788;2022-11-25T06:51:25;101258.28;;;2.01;83.06
21449;BME280;10885;52.830;13.788;2022-11-25T06:56:46;101259.50;;;2.04;82.47
21449;BME280;10885;52.830;13.788;2022-11-25T07:02:13;101254.75;;;2.07;82.93
21449;BME280;10885;52.830;13.788;2022-11-25T07:07:34;101259.22;;;2.10;83.20
21449;BME280;10885;52.830;13.788;2022-11-25T07:12:56;101268.03;;;2.13;83.30
21449;BME280;10885;52.830;13.788;2022-11-25T07:18:18;101269.06;;;2.15;82.82
21449;BME280;10885;52.830;13.788;2022-11-25T07:23:40;101271.00;;;2.18;82.79
21449;BME280;10885;52.830;13.788;2022-11-25T07:29:04;101279.22;;;2.24;83.01
21449;BME280;10885;52.830;13.788;2022-11-25T07:34:43;101274.94;;;2.32;83.21
21449;BME280;10885;52.830;13.788;2022-11-25T07:40:04;101277.91;;;2.36;83.20
21449;BME280;10885;52.830;13.788;2022-11-25T07:45:25;101275.28;;;2.44;83.32
21449;BME280;10885;52.830;13.788;2022-11-25T07:50:59;101284.69;;;2.53;82.79
21449;BME280;10885;52.830;13.788;2022-11-25T07:56:20;101285.91;;;2.66;83.40
21449;BME280;10885;52.830;13.788;2022-11-25T08:01:42;101282.06;;;2.78;82.96
21449;BME280;10885;52.830;13.788;2022-11-25T08:07:03;101287.59;;;2.91;82.88
21449;BME280;10885;52.830;13.788;2022-11-25T08:12:24;101295.09;;;3.07;83.33
21449;BME280;10885;52.830;13.788;2022-11-25T08:17:45;101288.69;;;3.19;83.22
21449;BME280;10885;52.830;13.788;2022-11-25T08:23:06;101287.50;;;3.33;83.61
21449;BME280;10885;52.830;13.788;2022-11-25T08:28:27;101291.38;;;3.38;82.84
21449;BME280;10885;52.830;13.788;2022-11-25T08:33:48;101288.50;;;3.44;83.04
21449;BME280;10885;52.830;13.788;2022-11-25T08:39:10;101296.75;;;3.50;83.41
21449;BME280;10885;52.830;13.788;2022-11-25T08:44:52;101293.28;;;3.50;83.64
21449;BME280;10885;52.830;13.788;2022-11-25T08:50:15;101302.69;;;3.59;82.98
21449;BME280;10885;52.830;13.788;2022-11-25T08:55:35;101310.75;;;3.55;82.61
21449;BME280;10885;52.830;13.788;2022-11-25T09:00:58;101316.41;;;3.62;82.71
21449;BME280;10885;52.830;13.788;2022-11-25T09:06:19;101316.72;;;3.65;83.67
21449;BME280;10885;52.830;13.788;2022-11-25T09:11:41;101327.72;;;3.74;83.47
21449;BME280;10885;52.830;13.788;2022-11-25T09:17:02;101325.34;;;3.84;83.33
21449;BME280;10885;52.830;13.788;2022-11-25T09:22:27;101331.56;;;3.88;83.70
21449;BME280;10885;52.830;13.788;2022-11-25T09:27:48;101332.78;;;4.00;83.33
21449;BME280;10885;52.830;13.788;2022-11-25T09:33:08;101333.78;;;4.11;82.94
21449;BME280;10885;52.830;13.788;2022-11-25T09:38:29;101328.66;;;4.19;83.53
21449;BME280;10885;52.830;13.788;2022-11-25T09:44:00;101332.38;;;4.32;83.20
21449;BME280;10885;52.830;13.788;2022-11-25T09:49:53;101332.50;;;4.42;83.30
21449;BME280;10885;52.830;13.788;2022-11-25T09:55:23;101332.66;;;4.44;83.89
21449;BME280;10885;52.830;13.788;2022-11-25T10:00:47;101339.34;;;4.43;83.25
21449;BME280;10885;52.830;13.788;2022-11-25T10:06:34;101338.31;;;4.50;83.13
21449;BME280;10885;52.830;13.788;2022-11-25T10:12:22;101336.44;;;4.57;83.45
21449;BME280;10885;52.830;13.788;2022-11-25T10:17:47;101330.25;;;4.73;83.42
21449;BME280;10885;52.830;13.788;2022-11-25T10:23:20;101326.31;;;4.85;83.56
21449;BME280;10885;52.830;13.788;2022-11-25T10:28:57;101327.09;;;5.03;83.73
21449;BME280;10885;52.830;13.788;2022-11-25T10:34:39;101324.50;;;5.12;83.62
21449;BME280;10885;52.830;13.788;2022-11-25T10:40:02;101320.63;;;5.15;83.16
21449;BME280;10885;52.830;13.788;2022-11-25T10:45:29;101325.06;;;5.18;83.88
21449;BME280;10885;52.830;13.788;2022-11-25T10:56:25;101316.41;;;5.35;83.67
21449;BME280;10885;52.830;13.788;2022-11-25T11:01:46;101320.75;;;5.36;83.60
21449;BME280;10885;52.830;13.788;2022-11-25T11:07:08;101316.00;;;5.30;83.48
21449;BME280;10885;52.830;13.788;2022-11-25T11:12:29;101306.88;;;5.51;83.01
21449;BME280;10885;52.830;13.788;2022-11-25T11:17:50;101306.09;;;5.71;83.22
21449;BME280;10885;52.830;13.788;2022-11-25T11:23:13;101314.31;;;5.88;83.34
21449;BME280;10885;52.830;13.788;2022-11-25T11:34:01;101311.72;;;6.07;83.07
21449;BME280;10885;52.830;13.788;2022-11-25T11:50:42;101302.38;;;6.26;83.03
21449;BME280;10885;52.830;13.788;2022-11-25T11:56:19;101308.91;;;6.33;82.87
21449;BME280;10885;52.830;13.788;2022-11-25T12:18:57;101299.00;;;6.07;82.93
21449;BME280;10885;52.830;13.788;2022-11-25T12:24:30;101296.94;;;6.03;82.78
21449;BME280;10885;52.830;13.788;2022-11-25T12:30:07;101296.22;;;6.04;83.33
21449;BME280;10885;52.830;13.788;2022-11-25T12:41:21;101303.50;;;5.90;83.29
21449;BME280;10885;52.830;13.788;2022-11-25T12:46:55;101299.91;;;5.88;83.17
21449;BME280;10885;52.830;13.788;2022-11-25T13:04:15;101302.72;;;5.81;83.33
21449;BME280;10885;52.830;13.788;2022-11-25T13:15:37;101304.22;;;5.79;83.56
21449;BME280;10885;52.830;13.788;2022-11-25T13:21:12;101307.13;;;5.73;83.45
21449;BME280;10885;52.830;13.788;2022-11-25T13:26:36;101308.34;;;5.68;83.35
21449;BME280;10885;52.830;13.788;2022-11-25T13:32:01;101305.28;;;5.62;83.32
21449;BME280;10885;52.830;13.788;2022-11-25T13:37:37;101316.06;;;5.60;83.29
21449;BME280;10885;52.830;13.788;2022-11-25T13:43:00;101321.50;;;5.54;83.16
21449;BME280;10885;52.830;13.788;2022-11-25T13:48:32;101319.28;;;5.48;83.67
21449;BME280;10885;52.830;13.788;2022-11-25T13:53:59;101319.94;;;5.46;83.56
21449;BME280;10885;52.830;13.788;2022-11-25T13:59:37;101324.88;;;5.44;83.19
21449;BME280;10885;52.830;13.788;2022-11-25T14:11:04;101350.06;;;5.32;83.43
21449;BME280;10885;52.830;13.788;2022-11-25T14:27:51;101343.34;;;5.14;84.06
21449;BME280;10885;52.830;13.788;2022-11-25T14:33:28;101359.66;;;5.07;83.32
21449;BME280;10885;52.830;13.788;2022-11-25T14:38:57;101363.44;;;5.02;83.80
21449;BME280;10885;52.830;13.788;2022-11-25T14:44:25;101361.22;;;4.96;84.29
21449;BME280;10885;52.830;13.788;2022-11-25T14:49:54;101373.50;;;4.92;84.37
21449;BME280;10885;52.830;13.788;2022-11-25T14:55:35;101372.94;;;4.86;83.94
21449;BME280;10885;52.830;13.788;2022-11-25T15:01:08;101368.81;;;4.77;84.13
21449;BME280;10885;52.830;13.788;2022-11-25T15:06:42;101375.25;;;4.74;84.26
21449;BME280;10885;52.830;13.788;2022-11-25T15:12:13;101394.06;;;4.67;84.02
21449;BME280;10885;52.830;13.788;2022-11-25T15:17:35;101395.31;;;4.62;83.99
21449;BME280;10885;52.830;13.788;2022-11-25T15:22:59;101395.31;;;4.53;84.25
21449;BME280;10885;52.830;13.788;2022-11-25T15:28:21;101398.78;;;4.45;83.38
21449;BME280;10885;52.830;13.788;2022-11-25T15:33:42;101407.00;;;4.43;84.29
21449;BME280;10885;52.830;13.788;2022-11-25T15:39:22;101404.16;;;4.39;84.28
21449;BME280;10885;52.830;13.788;2022-11-25T15:50:24;101399.28;;;4.32;83.59
21449;BME280;10885;52.830;13.788;2022-11-25T15:55:46;101397.19;;;4.28;84.25
21449;BME280;10885;52.830;13.788;2022-11-25T16:06:51;101412.25;;;4.27;83.97
21449;BME280;10885;52.830;13.788;2022-11-25T16:12:16;101396.00;;;4.25;83.24
21449;BME280;10885;52.830;13.788;2022-11-25T16:17:37;101409.28;;;4.22;83.69
21449;BME280;10885;52.830;13.788;2022-11-25T16:22:59;101411.84;;;4.22;84.06
21449;BME280;10885;52.830;13.788;2022-11-25T16:28:27;101412.56;;;4.21;83.60
21449;BME280;10885;52.830;13.788;2022-11-25T16:33:50;101421.06;;;4.22;84.22
21449;BME280;10885;52.830;13.788;2022-11-25T16:39:12;101416.75;;;4.21;84.30
21449;BME280;10885;52.830;13.788;2022-11-25T16:44:34;101416.59;;;4.19;83.56
21449;BME280;10885;52.830;13.788;2022-11-25T16:49:55;101421.69;;;4.19;83.75
21449;BME280;10885;52.830;13.788;2022-11-25T16:55:16;101421.53;;;4.17;83.93
21449;BME280;10885;52.830;13.788;2022-11-25T17:00:38;101430.06;;;4.18;84.13
21449;BME280;10885;52.830;13.788;2022-11-25T17:05:58;101430.06;;;4.18;83.38
21449;BME280;10885;52.830;13.788;2022-11-25T17:11:25;101434.38;;;4.19;83.74
21449;BME280;10885;52.830;13.788;2022-11-25T17:16:47;101433.63;;;4.20;83.90
21449;BME280;10885;52.830;13.788;2022-11-25T17:22:17;101442.28;;;4.22;83.37
21449;BME280;10885;52.830;13.788;2022-11-25T17:27:39;101447.38;;;4.22;84.01
21449;BME280;10885;52.830;13.788;2022-11-25T17:33:03;101460.78;;;4.21;83.58
21449;BME280;10885;52.830;13.788;2022-11-25T17:38:25;101459.00;;;4.20;83.55
21449;BME280;10885;52.830;13.788;2022-11-25T17:43:48;101457.19;;;4.19;84.47
21449;BME280;10885;52.830;13.788;2022-11-25T17:49:14;101459.00;;;4.20;83.60
21449;BME280;10885;52.830;13.788;2022-11-25T17:54:35;101465.69;;;4.19;83.83
21449;BME280;10885;52.830;13.788;2022-11-25T17:59:56;101466.16;;;4.15;84.54
21449;BME280;10885;52.830;13.788;2022-11-25T18:05:19;101473.34;;;4.11;84.26
21449;BME280;10885;52.830;13.788;2022-11-25T18:10:43;101478.09;;;4.08;84.21
21449;BME280;10885;52.830;13.788;2022-11-25T18:16:06;101475.56;;;4.08;83.57
21449;BME280;10885;52.830;13.788;2022-11-25T18:21:27;101481.41;;;4.07;84.53
21449;BME280;10885;52.830;13.788;2022-11-25T18:26:49;101477.97;;;4.06;84.24
21449;BME280;10885;52.830;13.788;2022-11-25T18:32:12;101492.28;;;4.06;83.70
21449;BME280;10885;52.830;13.788;2022-11-25T18:37:33;101494.97;;;4.07;83.85
21449;BME280;10885;52.830;13.788;2022-11-25T18:43:32;101491.22;;;4.04;83.61
21449;BME280;10885;52.830;13.788;2022-11-25T18:48:54;101502.72;;;4.09;84.52
21449;BME280;10885;52.830;13.788;2022-11-25T18:54:16;101510.34;;;4.09;84.61
21449;BME280;10885;52.830;13.788;2022-11-25T18:59:37;101506.94;;;4.08;84.76
21449;BME280;10885;52.830;13.788;2022-11-25T19:04:57;101507.66;;;4.07;84.17
21449;BME280;10885;52.830;13.788;2022-11-25T19:10:20;101517.66;;;4.06;84.06
21449;BME280;10885;52.830;13.788;2022-11-25T19:15:43;101522.00;;;4.07;84.18
21449;BME280;10885;52.830;13.788;2022-11-25T19:21:05;101517.66;;;4.06;84.69
21449;BME280;10885;52.830;13.788;2022-11-25T19:26:27;101537.22;;;4.07;84.49
21449;BME280;10885;52.830;13.788;2022-11-25T19:31:50;101539.00;;;4.08;84.41
21449;BME280;10885;52.830;13.788;2022-11-25T19:37:19;101541.53;;;4.08;84.74
21449;BME280;10885;52.830;13.788;2022-11-25T19:42:40;101549.13;;;4.08;84.56
21449;BME280;10885;52.830;13.788;2022-11-25T19:48:05;101556.91;;;4.09;84.13
21449;BME280;10885;52.830;13.788;2022-11-25T19:53:27;101562.75;;;4.08;83.85
21449;BME280;10885;52.830;13.788;2022-11-25T19:58:56;101564.69;;;4.11;83.74
21449;BME280;10885;52.830;13.788;2022-11-25T20:04:20;101570.63;;;4.11;84.16
21449;BME280;10885;52.830;13.788;2022-11-25T20:09:42;101580.06;;;4.12;84.86
21449;BME280;10885;52.830;13.788;2022-11-25T20:15:03;101579.28;;;4.13;84.62
21449;BME280;10885;52.830;13.788;2022-11-25T20:20:27;101588.72;;;4.14;84.05
21449;BME280;10885;52.830;13.788;2022-11-25T20:25:50;101592.13;;;4.15;84.77
21449;BME280;10885;52.830;13.788;2022-11-25T20:31:11;101602.63;;;4.18;84.23
21449;BME280;10885;52.830;13.788;2022-11-25T20:36:33;101605.16;;;4.18;84.24
21449;BME280;10885;52.830;13.788;2022-11-25T20:41:54;101611.28;;;4.20;84.09
21449;BME280;10885;52.830;13.788;2022-11-25T20:47:17;101616.34;;;4.20;84.14
21449;BME280;10885;52.830;13.788;2022-11-25T20:52:39;101621.41;;;4.20;84.33
21449;BME280;10885;52.830;13.788;2022-11-25T20:58:01;101632.47;;;4.21;83.90
21449;BME280;10885;52.830;13.788;2022-11-25T21:03:30;101623.19;;;4.21;84.38
21449;BME280;10885;52.830;13.788;2022-11-25T21:08:52;101633.50;;;4.23;84.15
21449;BME280;10885;52.830;13.788;2022-11-25T21:14:17;101645.03;;;4.28;84.68
21449;BME280;10885;52.830;13.788;2022-11-25T21:19:39;101637.69;;;4.31;84.41
21449;BME280;10885;52.830;13.788;2022-11-25T21:25:00;101650.56;;;4.32;84.96
21449;BME280;10885;52.830;13.788;2022-11-25T21:30:27;101649.78;;;4.33;84.03
21449;BME280;10885;52.830;13.788;2022-11-25T21:35:52;101649.06;;;4.34;84.46
21449;BME280;10885;52.830;13.788;2022-11-25T21:41:13;101658.63;;;4.37;84.98
21449;BME280;10885;52.830;13.788;2022-11-25T21:46:34;101656.22;;;4.38;84.78
21449;BME280;10885;52.830;13.788;2022-11-25T21:51:55;101667.13;;;4.37;84.25
21449;BME280;10885;52.830;13.788;2022-11-25T21:57:25;101672.22;;;4.46;84.23
21449;BME280;10885;52.830;13.788;2022-11-25T22:02:46;101678.50;;;4.50;84.34
21449;BME280;10885;52.830;13.788;2022-11-25T22:08:08;101681.06;;;4.50;84.22
21449;BME280;10885;52.830;13.788;2022-11-25T22:13:35;101687.75;;;4.49;84.86
21449;BME280;10885;52.830;13.788;2022-11-25T22:18:58;101687.75;;;4.49;84.41
21449;BME280;10885;52.830;13.788;2022-11-25T22:24:20;101690.16;;;4.48;83.77
21449;BME280;10885;52.830;13.788;2022-11-25T22:29:41;101688.94;;;4.44;84.55
21449;BME280;10885;52.830;13.788;2022-11-25T22:35:12;101698.78;;;4.41;84.77
21449;BME280;10885;52.830;13.788;2022-11-25T22:40:33;101702.09;;;4.40;84.88
21449;BME280;10885;52.830;13.788;2022-11-25T22:45:54;101713.13;;;4.41;84.36
21449;BME280;10885;52.830;13.788;2022-11-25T22:51:17;101718.22;;;4.41;84.90
21449;BME280;10885;52.830;13.788;2022-11-25T22:56:41;101710.59;;;4.41;84.69
